sensor_id;sensor_type;location;lat;lon;timestamp;pressure;altitude;pressure_sealevel;temperature;humidity
75936;BME280;64614;32.062;34.834;2024-02-21T00:01:30;101564.03;;;22.56;50.67
75936;BME280;64614;32.062;34.834;2024-02-21T00:03:55;101552.63;;;22.48;50.87
75936;BME280;64614;32.062;34.834;2024-02-21T00:06:21;101564.00;;;22.61;50.47
75936;BME280;64614;32.062;34.834;2024-02-21T00:08:56;101548.16;;;22.58;50.65
75936;BME280;64614;32.062;34.834;2024-02-21T00:11:21;101556.06;;;22.59;50.93
75936;BME280;64614;32.062;34.834;2024-02-21T00:13:47;101555.34;;;22.48;50.84
75936;BME280;64614;32.062;34.834;2024-02-21T00:16:13;101544.94;;;22.50;50.69
75936;BME280;64614;32.062;34.834;2024-02-21T00:18:41;101561.00;;;22.57;51.14
75936;BME280;64614;32.062;34.834;2024-02-21T00:21:06;101539.22;;;22.47;50.80
75936;BME280;64614;32.062;34.834;2024-02-21T00:23:33;101593.13;;;22.76;50.85
75936;BME280;64614;32.062;34.834;2024-02-21T00:25:58;101569.41;;;22.66;51.18
75936;BME280;64614;32.062;34.834;2024-02-21T00:28:24;101568.88;;;22.64;50.67
75936;BME280;64614;32.062;34.834;2024-02-21T00:30:50;101573.78;;;22.67;50.75
75936;BME280;64614;32.062;34.834;2024-02-21T00:33:19;101571.50;;;22.74;50.81
75936;BME280;64614;32.062;34.834;2024-02-21T00:35:45;101570.19;;;22.72;50.88
75936;BME280;64614;32.062;34.834;2024-02-21T00:38:10;101587.94;;;22.74;51.23
75936;BME280;64614;32.062;34.834;2024-02-21T00:40:36;101574.59;;;22.67;51.02
75936;BME280;64614;32.062;34.834;2024-02-21T00:43:05;101532.91;;;22.46;50.72
75936;BME280;64614;32.062;34.834;2024-02-21T00:45:31;101546.84;;;22.50;50.88
75936;BME280;64614;32.062;34.834;2024-02-21T00:47:57;101563.88;;;22.71;50.89
75936;BME280;64614;32.062;34.834;2024-02-21T00:50:25;101553.38;;;22.54;51.32
75936;BME280;64614;32.062;34.834;2024-02-21T00:52:51;101541.66;;;22.48;50.97
75936;BME280;64614;32.062;34.834;2024-02-21T00:55:17;101539.47;;;22.50;50.81
75936;BME280;64614;32.062;34.834;2024-02-21T00:57:42;101556.03;;;22.64;51.22
75936;BME280;64614;32.062;34.834;2024-02-21T01:00:15;101547.84;;;22.59;50.81
75936;BME280;64614;32.062;34.834;2024-02-21T01:02:40;101539.16;;;22.52;51.09
75936;BME280;64614;32.062;34.834;2024-02-21T01:05:06;101542.19;;;22.50;50.87
75936;BME280;64614;32.062;34.834;2024-02-21T01:07:32;101563.94;;;22.66;51.34
75936;BME280;64614;32.062;34.834;2024-02-21T01:09:58;101558.22;;;22.62;51.13
75936;BME280;64614;32.062;34.834;2024-02-21T01:12:24;101556.88;;;22.60;50.85
75936;BME280;64614;32.062;34.834;2024-02-21T01:14:49;101565.03;;;22.65;51.07
75936;BME280;64614;32.062;34.834;2024-02-21T01:17:15;101535.13;;;22.44;50.82
75936;BME280;64614;32.062;34.834;2024-02-21T01:19:41;101558.22;;;22.62;51.31
75936;BME280;64614;32.062;34.834;2024-02-21T01:22:07;101563.41;;;22.64;51.01
75936;BME280;64614;32.062;34.834;2024-02-21T01:24:33;101557.16;;;22.58;51.40
75936;BME280;64614;32.062;34.834;2024-02-21T01:26:58;101568.31;;;22.67;51.29
75936;BME280;64614;32.062;34.834;2024-02-21T01:29:24;101557.69;;;22.60;51.09
75936;BME280;64614;32.062;34.834;2024-02-21T01:31:50;101559.63;;;22.60;51.35
75936;BME280;64614;32.062;34.834;2024-02-21T01:34:15;101567.25;;;22.63;51.40
75936;BME280;64614;32.062;34.834;2024-02-21T01:36:41;101557.41;;;22.62;51.26
75936;BME280;64614;32.062;34.834;2024-02-21T01:39:07;101561.50;;;22.64;51.35
75936;BME280;64614;32.062;34.834;2024-02-21T01:41:33;101553.63;;;22.58;51.33
75936;BME280;64614;32.062;34.834;2024-02-21T01:43:58;101551.19;;;22.56;51.38
75936;BME280;64614;32.062;34.834;2024-02-21T01:46:26;101556.59;;;22.61;51.18
75936;BME280;64614;32.062;34.834;2024-02-21T01:48:57;101563.41;;;22.64;51.59
75936;BME280;64614;32.062;34.834;2024-02-21T01:51:24;101564.50;;;22.63;51.40
75936;BME280;64614;32.062;34.834;2024-02-21T01:53:50;101553.06;;;22.61;51.46
75936;BME280;64614;32.062;34.834;2024-02-21T01:56:17;101549.47;;;22.60;51.25
75936;BME280;64614;32.062;34.834;2024-02-21T01:58:43;101557.94;;;22.64;51.34
75936;BME280;64614;32.062;34.834;2024-02-21T02:01:10;101559.31;;;22.61;51.25
75936;BME280;64614;32.062;34.834;2024-02-21T02:03:36;101563.69;;;22.62;51.58
75936;BME280;64614;32.062;34.834;2024-02-21T02:06:05;101557.16;;;22.58;51.39
75936;BME280;64614;32.062;34.834;2024-02-21T02:08:31;101558.53;;;22.61;51.61
75936;BME280;64614;32.062;34.834;2024-02-21T02:10:57;101540.88;;;22.48;51.55
75936;BME280;64614;32.062;34.834;2024-02-21T02:13:29;101521.78;;;22.37;51.75
75936;BME280;64614;32.062;34.834;2024-02-21T02:15:55;101520.13;;;22.36;51.53
75936;BME280;64614;32.062;34.834;2024-02-21T02:18:20;101523.69;;;22.42;51.36
75936;BME280;64614;32.062;34.834;2024-02-21T02:20:47;101551.97;;;22.57;51.55
75936;BME280;64614;32.062;34.834;2024-02-21T02:23:35;101515.53;;;22.32;51.74
75936;BME280;64614;32.062;34.834;2024-02-21T02:26:00;101534.31;;;22.44;51.23
75936;BME280;64614;32.062;34.834;2024-02-21T02:28:27;101549.00;;;22.53;51.68
75936;BME280;64614;32.062;34.834;2024-02-21T02:30:53;101561.00;;;22.57;51.75
75936;BME280;64614;32.062;34.834;2024-02-21T02:33:19;101556.94;;;22.54;51.82
75936;BME280;64614;32.062;34.834;2024-02-21T02:35:47;101558.63;;;22.50;51.46
75936;BME280;64614;32.062;34.834;2024-02-21T02:38:19;101547.69;;;22.50;51.54
75936;BME280;64614;32.062;34.834;2024-02-21T02:40:45;101549.31;;;22.51;51.77
75936;BME280;64614;32.062;34.834;2024-02-21T02:43:10;101556.38;;;22.52;51.66
75936;BME280;64614;32.062;34.834;2024-02-21T02:45:36;101549.94;;;22.43;51.88
75936;BME280;64614;32.062;34.834;2024-02-21T02:48:04;101554.03;;;22.41;51.49
75936;BME280;64614;32.062;34.834;2024-02-21T02:50:38;101554.03;;;22.41;51.67
75936;BME280;64614;32.062;34.834;2024-02-21T02:53:04;101552.69;;;22.43;51.59
75936;BME280;64614;32.062;34.834;2024-02-21T02:55:30;101555.34;;;22.48;51.89
75936;BME280;64614;32.062;34.834;2024-02-21T02:57:55;101530.88;;;22.28;51.51
75936;BME280;64614;32.062;34.834;2024-02-21T03:00:22;101547.22;;;22.38;51.54
75936;BME280;64614;32.062;34.834;2024-02-21T03:03:00;101542.91;;;22.32;51.69
75936;BME280;64614;32.062;34.834;2024-02-21T03:05:26;101562.47;;;22.49;51.68
75936;BME280;64614;32.062;34.834;2024-02-21T03:07:52;101547.22;;;22.38;51.81
75936;BME280;64614;32.062;34.834;2024-02-21T03:10:18;101548.84;;;22.39;51.72
75936;BME280;64614;32.062;34.834;2024-02-21T03:12:43;101556.53;;;22.37;51.85
75936;BME280;64614;32.062;34.834;2024-02-21T03:15:09;101562.00;;;22.42;51.68
75936;BME280;64614;32.062;34.834;2024-02-21T03:17:35;101558.72;;;22.35;51.66
75936;BME280;64614;32.062;34.834;2024-02-21T03:20:05;101578.41;;;22.42;51.53
75936;BME280;64614;32.062;34.834;2024-02-21T03:22:31;101571.00;;;22.43;51.55
75936;BME280;64614;32.062;34.834;2024-02-21T03:25:08;101570.19;;;22.42;51.55
75936;BME280;64614;32.062;34.834;2024-02-21T03:27:35;101550.56;;;22.30;51.61
75936;BME280;64614;32.062;34.834;2024-02-21T03:30:01;101551.97;;;22.27;51.64
75936;BME280;64614;32.062;34.834;2024-02-21T03:32:26;101559.84;;;22.34;51.40
75936;BME280;64614;32.062;34.834;2024-02-21T03:34:53;101564.72;;;22.37;51.70
75936;BME280;64614;32.062;34.834;2024-02-21T03:37:20;101564.72;;;22.37;51.70
75936;BME280;64614;32.062;34.834;2024-02-21T03:39:46;101561.50;;;22.30;51.67
75936;BME280;64614;32.062;34.834;2024-02-21T03:42:11;101556.59;;;22.27;51.54
75936;BME280;64614;32.062;34.834;2024-02-21T03:44:37;101557.97;;;22.29;51.21
75936;BME280;64614;32.062;34.834;2024-02-21T03:47:03;101555.28;;;22.24;51.66
75936;BME280;64614;32.062;34.834;2024-02-21T03:49:29;101568.91;;;22.29;51.46
75936;BME280;64614;32.062;34.834;2024-02-21T03:51:54;101560.97;;;22.28;51.57
75936;BME280;64614;32.062;34.834;2024-02-21T03:54:20;101570.81;;;22.29;51.25
75936;BME280;64614;32.062;34.834;2024-02-21T03:56:46;101579.56;;;22.31;51.28
75936;BME280;64614;32.062;34.834;2024-02-21T03:59:17;101565.97;;;22.20;51.37
75936;BME280;64614;32.062;34.834;2024-02-21T04:01:42;101574.66;;;22.28;51.46
75936;BME280;64614;32.062;34.834;2024-02-21T04:04:10;101578.00;;;22.25;51.70
75936;BME280;64614;32.062;34.834;2024-02-21T04:06:36;101542.59;;;22.04;51.42
75936;BME280;64614;32.062;34.834;2024-02-21T04:09:05;101574.16;;;22.26;51.56
75936;BME280;64614;32.062;34.834;2024-02-21T04:11:30;101577.47;;;22.22;51.27
75936;BME280;64614;32.062;34.834;2024-02-21T04:13:56;101580.75;;;22.19;51.28
75936;BME280;64614;32.062;34.834;2024-02-21T04:16:22;101565.25;;;22.10;51.29
75936;BME280;64614;32.062;34.834;2024-02-21T04:18:47;101576.50;;;22.08;51.50
75936;BME280;64614;32.062;34.834;2024-02-21T04:21:17;101597.94;;;22.25;51.27
75936;BME280;64614;32.062;34.834;2024-02-21T04:23:42;101575.09;;;22.11;50.96
75936;BME280;64614;32.062;34.834;2024-02-21T04:26:08;101585.75;;;22.12;51.45
75936;BME280;64614;32.062;34.834;2024-02-21T04:28:34;101575.41;;;22.04;51.18
75936;BME280;64614;32.062;34.834;2024-02-21T04:31:00;101602.63;;;22.25;51.19
75936;BME280;64614;32.062;34.834;2024-02-21T04:33:25;101574.06;;;22.01;51.28
75936;BME280;64614;32.062;34.834;2024-02-21T04:35:51;101598.84;;;22.15;51.20
75936;BME280;64614;32.062;34.834;2024-02-21T04:38:22;101587.75;;;22.01;51.33
75936;BME280;64614;32.062;34.834;2024-02-21T04:40:48;101611.69;;;22.20;50.90
75936;BME280;64614;32.062;34.834;2024-02-21T04:43:14;101583.06;;;22.07;50.99
75936;BME280;64614;32.062;34.834;2024-02-21T04:45:39;101595.34;;;22.10;50.77
75936;BME280;64614;32.062;34.834;2024-02-21T04:48:05;101592.91;;;22.03;50.92
75936;BME280;64614;32.062;34.834;2024-02-21T04:50:31;101607.09;;;22.10;51.14
75936;BME280;64614;32.062;34.834;2024-02-21T04:52:56;101611.47;;;22.11;50.80
75936;BME280;64614;32.062;34.834;2024-02-21T04:55:22;101619.13;;;22.09;50.61
75936;BME280;64614;32.062;34.834;2024-02-21T04:57:48;101618.03;;;22.10;50.85
75936;BME280;64614;32.062;34.834;2024-02-21T05:00:14;101588.91;;;21.90;51.04
75936;BME280;64614;32.062;34.834;2024-02-21T05:02:41;101628.41;;;22.13;50.51
75936;BME280;64614;32.062;34.834;2024-02-21T05:05:07;101594.94;;;21.92;50.76
75936;BME280;64614;32.062;34.834;2024-02-21T05:07:34;101611.56;;;21.96;50.77
75936;BME280;64614;32.062;34.834;2024-02-21T05:10:00;101599.31;;;21.88;50.56
75936;BME280;64614;32.062;34.834;2024-02-21T05:14:51;101620.84;;;22.00;50.63
75936;BME280;64614;32.062;34.834;2024-02-21T05:17:17;101651.94;;;22.14;50.81
75936;BME280;64614;32.062;34.834;2024-02-21T05:19:49;101599.59;;;21.86;50.97
75936;BME280;64614;32.062;34.834;2024-02-21T05:22:14;101645.38;;;22.10;50.62
75936;BME280;64614;32.062;34.834;2024-02-21T05:24:40;101661.78;;;22.15;50.64
75936;BME280;64614;32.062;34.834;2024-02-21T05:27:05;101657.94;;;22.16;50.42
75936;BME280;64614;32.062;34.834;2024-02-21T05:29:32;101651.44;;;22.07;50.68
75936;BME280;64614;32.062;34.834;2024-02-21T05:32:02;101634.00;;;21.98;50.24
75936;BME280;64614;32.062;34.834;2024-02-21T05:34:31;101647.38;;;21.99;50.58
75936;BME280;64614;32.062;34.834;2024-02-21T05:36:56;101657.91;;;22.21;50.78
75936;BME280;64614;32.062;34.834;2024-02-21T05:39:25;101666.06;;;22.27;50.18
75936;BME280;64614;32.062;34.834;2024-02-21T05:41:50;101652.34;;;22.32;50.30
75936;BME280;64614;32.062;34.834;2024-02-21T05:44:16;101662.88;;;22.54;50.06
75936;BME280;64614;32.062;34.834;2024-02-21T05:46:42;101661.69;;;22.65;50.30
75936;BME280;64614;32.062;34.834;2024-02-21T05:49:08;101671.72;;;22.75;49.95
75936;BME280;64614;32.062;34.834;2024-02-21T05:51:34;101669.16;;;22.84;50.09
75936;BME280;64614;32.062;34.834;2024-02-21T05:54:00;101661.16;;;22.93;50.11
75936;BME280;64614;32.062;34.834;2024-02-21T05:56:25;101675.25;;;23.05;50.51
75936;BME280;64614;32.062;34.834;2024-02-21T05:58:51;101672.78;;;23.09;50.26
75936;BME280;64614;32.062;34.834;2024-02-21T06:01:17;101667.53;;;23.12;50.09
75936;BME280;64614;32.062;34.834;2024-02-21T06:03:43;101648.47;;;23.02;49.95
75936;BME280;64614;32.062;34.834;2024-02-21T06:06:09;101643.28;;;23.00;49.56
75936;BME280;64614;32.062;34.834;2024-02-21T06:08:34;101634.47;;;23.04;49.80
75936;BME280;64614;32.062;34.834;2024-02-21T06:11:03;101645.63;;;23.12;49.60
75936;BME280;64614;32.062;34.834;2024-02-21T06:13:33;101652.72;;;23.13;49.39
75936;BME280;64614;32.062;34.834;2024-02-21T06:15:58;101657.00;;;23.25;49.47
75936;BME280;64614;32.062;34.834;2024-02-21T06:21:16;101670.88;;;23.34;49.73
75936;BME280;64614;32.062;34.834;2024-02-21T06:23:42;101656.13;;;23.29;49.51
75936;BME280;64614;32.062;34.834;2024-02-21T06:26:07;101660.16;;;23.37;49.77
75936;BME280;64614;32.062;34.834;2024-02-21T06:28:45;101683.75;;;23.57;49.55
75936;BME280;64614;32.062;34.834;2024-02-21T06:31:12;101669.88;;;23.49;49.39
75936;BME280;64614;32.062;34.834;2024-02-21T06:33:38;101649.63;;;23.44;49.11
75936;BME280;64614;32.062;34.834;2024-02-21T06:51:37;101680.75;;;23.78;48.54
75936;BME280;64614;32.062;34.834;2024-02-21T06:54:02;101702.25;;;23.90;48.46
75936;BME280;64614;32.062;34.834;2024-02-21T06:56:28;101696.19;;;23.93;48.51
75936;BME280;64614;32.062;34.834;2024-02-21T06:58:57;101691.28;;;23.90;48.52
75936;BME280;64614;32.062;34.834;2024-02-21T07:01:26;101696.13;;;23.98;48.71
75936;BME280;64614;32.062;34.834;2024-02-21T07:03:52;101687.31;;;24.01;48.61
75936;BME280;64614;32.062;34.834;2024-02-21T07:06:17;101675.63;;;23.90;48.54
75936;BME280;64614;32.062;34.834;2024-02-21T07:08:43;101681.09;;;23.96;48.37
75936;BME280;64614;32.062;34.834;2024-02-21T07:11:11;101658.41;;;23.85;48.29
75936;BME280;64614;32.062;34.834;2024-02-21T07:13:38;101652.88;;;23.90;48.52
75936;BME280;64614;32.062;34.834;2024-02-21T07:16:06;101698.53;;;24.05;48.66
75936;BME280;64614;32.062;34.834;2024-02-21T07:18:32;101697.69;;;24.23;48.67
75936;BME280;64614;32.062;34.834;2024-02-21T07:21:16;101700.28;;;24.15;48.40
75936;BME280;64614;32.062;34.834;2024-02-21T07:23:42;101661.69;;;23.87;47.91
75936;BME280;64614;32.062;34.834;2024-02-21T07:28:38;101681.31;;;23.99;47.80
75936;BME280;64614;32.062;34.834;2024-02-21T07:31:04;101668.22;;;23.91;48.13
75936;BME280;64614;32.062;34.834;2024-02-21T07:33:30;101708.59;;;24.09;47.56
75936;BME280;64614;32.062;34.834;2024-02-21T07:35:56;101696.72;;;23.95;47.53
75936;BME280;64614;32.062;34.834;2024-02-21T07:38:22;101682.22;;;23.89;47.28
75936;BME280;64614;32.062;34.834;2024-02-21T07:40:52;101698.09;;;23.92;46.91
75936;BME280;64614;32.062;34.834;2024-02-21T07:43:20;101710.38;;;24.00;46.22
75936;BME280;64614;32.062;34.834;2024-02-21T07:45:47;101703.31;;;23.94;46.04
75936;BME280;64614;32.062;34.834;2024-02-21T07:48:13;101712.06;;;23.96;46.49
75936;BME280;64614;32.062;34.834;2024-02-21T07:50:39;101696.03;;;23.84;46.37
75936;BME280;64614;32.062;34.834;2024-02-21T07:53:04;101703.13;;;23.85;46.15
75936;BME280;64614;32.062;34.834;2024-02-21T07:55:30;101676.72;;;23.70;46.13
75936;BME280;64614;32.062;34.834;2024-02-21T07:57:55;101689.84;;;23.73;46.06
75936;BME280;64614;32.062;34.834;2024-02-21T08:00:24;101677.31;;;23.67;45.97
75936;BME280;64614;32.062;34.834;2024-02-21T08:02:50;101692.53;;;23.78;45.55
75936;BME280;64614;32.062;34.834;2024-02-21T08:05:15;101679.47;;;23.70;45.89
75936;BME280;64614;32.062;34.834;2024-02-21T08:07:41;101687.13;;;23.73;45.98
75936;BME280;64614;32.062;34.834;2024-02-21T08:10:07;101699.63;;;23.79;45.68
75936;BME280;64614;32.062;34.834;2024-02-21T08:12:33;101712.47;;;23.84;45.32
75936;BME280;64614;32.062;34.834;2024-02-21T08:15:00;101711.66;;;23.84;45.71
75936;BME280;64614;32.062;34.834;2024-02-21T08:17:26;101712.47;;;23.84;45.43
75936;BME280;64614;32.062;34.834;2024-02-21T08:19:51;101719.28;;;23.87;45.46
75936;BME280;64614;32.062;34.834;2024-02-21T08:22:17;101711.59;;;23.89;45.63
75936;BME280;64614;32.062;34.834;2024-02-21T08:24:43;101698.53;;;23.81;45.57
75936;BME280;64614;32.062;34.834;2024-02-21T08:27:08;101702.91;;;23.82;45.68
75936;BME280;64614;32.062;34.834;2024-02-21T08:29:34;101712.38;;;23.94;45.78
75936;BME280;64614;32.062;34.834;2024-02-21T08:31:59;101713.19;;;23.95;45.77
75936;BME280;64614;32.062;34.834;2024-02-21T08:34:25;101698.94;;;23.93;45.68
75936;BME280;64614;32.062;34.834;2024-02-21T08:36:51;101700.50;;;23.99;45.58
75936;BME280;64614;32.062;34.834;2024-02-21T08:39:16;101689.34;;;23.90;45.54
75936;BME280;64614;32.062;34.834;2024-02-21T08:41:42;101701.03;;;24.01;45.74
75936;BME280;64614;32.062;34.834;2024-02-21T08:44:08;101673.19;;;23.89;45.75
75936;BME280;64614;32.062;34.834;2024-02-21T08:46:33;101709.78;;;24.03;45.74
75936;BME280;64614;32.062;34.834;2024-02-21T08:48:59;101698.00;;;24.03;45.40
75936;BME280;64614;32.062;34.834;2024-02-21T08:51:25;101695.78;;;24.05;45.39
75936;BME280;64614;32.062;34.834;2024-02-21T08:53:55;101697.41;;;24.06;45.51
75936;BME280;64614;32.062;34.834;2024-02-21T08:56:21;101687.81;;;24.03;45.48
75936;BME280;64614;32.062;34.834;2024-02-21T08:58:46;101694.41;;;24.02;45.72
75936;BME280;64614;32.062;34.834;2024-02-21T09:01:12;101673.66;;;23.96;45.62
75936;BME280;64614;32.062;34.834;2024-02-21T09:03:38;101674.78;;;23.95;45.51
75936;BME280;64614;32.062;34.834;2024-02-21T09:06:05;101677.44;;;24.00;45.82
75936;BME280;64614;32.062;34.834;2024-02-21T09:08:32;101682.31;;;24.03;45.98
75936;BME280;64614;32.062;34.834;2024-02-21T09:10:58;101662.09;;;23.99;45.80
75936;BME280;64614;32.062;34.834;2024-02-21T09:13:23;101664.84;;;23.99;45.91
75936;BME280;64614;32.062;34.834;2024-02-21T09:15:49;101655.72;;;24.04;45.89
75936;BME280;64614;32.062;34.834;2024-02-21T09:18:15;101652.66;;;24.05;45.95
75936;BME280;64614;32.062;34.834;2024-02-21T09:20:42;101649.63;;;24.07;46.01
75936;BME280;64614;32.062;34.834;2024-02-21T09:23:08;101642.28;;;24.02;46.04
75936;BME280;64614;32.062;34.834;2024-02-21T09:25:34;101644.75;;;24.04;46.44
75936;BME280;64614;32.062;34.834;2024-02-21T09:28:03;101629.41;;;24.03;46.20
75936;BME280;64614;32.062;34.834;2024-02-21T09:30:29;101625.31;;;24.00;45.95
75936;BME280;64614;32.062;34.834;2024-02-21T09:32:56;101632.72;;;24.00;45.99
75936;BME280;64614;32.062;34.834;2024-02-21T09:35:25;101622.59;;;24.00;45.94
75936;BME280;64614;32.062;34.834;2024-02-21T09:37:53;101615.47;;;23.99;46.37
75936;BME280;64614;32.062;34.834;2024-02-21T09:40:19;101623.59;;;24.04;45.98
75936;BME280;64614;32.062;34.834;2024-02-21T09:42:46;101629.31;;;24.08;46.18
75936;BME280;64614;32.062;34.834;2024-02-21T09:45:23;101614.25;;;24.05;46.45
75936;BME280;64614;32.062;34.834;2024-02-21T09:50:15;101607.34;;;24.08;46.24
75936;BME280;64614;32.062;34.834;2024-02-21T09:52:41;101596.16;;;24.04;46.14
75936;BME280;64614;32.062;34.834;2024-02-21T09:55:08;101590.66;;;24.04;46.06
75936;BME280;64614;32.062;34.834;2024-02-21T09:57:38;101576.06;;;24.09;46.38
75936;BME280;64614;32.062;34.834;2024-02-21T10:00:05;101570.34;;;24.05;46.27
75936;BME280;64614;32.062;34.834;2024-02-21T10:02:33;101582.38;;;24.09;46.21
75936;BME280;64614;32.062;34.834;2024-02-21T10:04:59;101582.38;;;24.09;46.37
75936;BME280;64614;32.062;34.834;2024-02-21T10:07:26;101578.50;;;24.11;46.40
75936;BME280;64614;32.062;34.834;2024-02-21T10:10:03;101558.16;;;24.12;46.40
75936;BME280;64614;32.062;34.834;2024-02-21T10:12:29;101560.50;;;24.04;46.34
75936;BME280;64614;32.062;34.834;2024-02-21T10:15:05;101552.47;;;24.08;46.21
75936;BME280;64614;32.062;34.834;2024-02-21T10:17:34;101550.63;;;24.03;46.29
75936;BME280;64614;32.062;34.834;2024-02-21T10:20:11;101545.13;;;24.03;46.21
75936;BME280;64614;32.062;34.834;2024-02-21T10:22:38;101543.59;;;23.97;46.11
75936;BME280;64614;32.062;34.834;2024-02-21T10:25:12;101555.31;;;24.03;46.19
75936;BME280;64614;32.062;34.834;2024-02-21T10:27:39;101541.97;;;23.96;45.87
75936;BME280;64614;32.062;34.834;2024-02-21T10:30:12;101539.22;;;23.96;45.89
75936;BME280;64614;32.062;34.834;2024-02-21T10:32:57;101536.78;;;23.94;46.21
75936;BME280;64614;32.062;34.834;2024-02-21T10:35:30;101536.78;;;23.94;45.93
75936;BME280;64614;32.062;34.834;2024-02-21T10:37:57;101530.47;;;23.94;45.79
75936;BME280;64614;32.062;34.834;2024-02-21T10:40:27;101531.50;;;23.98;46.11
75936;BME280;64614;32.062;34.834;2024-02-21T10:43:02;101534.47;;;24.02;45.97
75936;BME280;64614;32.062;34.834;2024-02-21T10:45:32;101522.81;;;24.10;45.76
75936;BME280;64614;32.062;34.834;2024-02-21T10:48:22;101511.19;;;23.99;45.98
75936;BME280;64614;32.062;34.834;2024-02-21T10:51:02;101515.47;;;24.05;45.97
75936;BME280;64614;32.062;34.834;2024-02-21T10:53:47;101508.34;;;24.04;45.83
75936;BME280;64614;32.062;34.834;2024-02-21T10:56:31;101506.72;;;24.03;45.74
75936;BME280;64614;32.062;34.834;2024-02-21T10:59:02;101500.22;;;23.99;45.72
75936;BME280;64614;32.062;34.834;2024-02-21T11:01:28;101494.94;;;24.03;45.53
75936;BME280;64614;32.062;34.834;2024-02-21T11:03:59;101493.31;;;24.02;45.78
75936;BME280;64614;32.062;34.834;2024-02-21T11:06:26;101477.22;;;23.95;45.73
75936;BME280;64614;32.062;34.834;2024-02-21T11:09:02;101488.13;;;24.00;45.71
75936;BME280;64614;32.062;34.834;2024-02-21T11:11:28;101479.97;;;23.95;45.46
75936;BME280;64614;32.062;34.834;2024-02-21T11:14:06;101485.38;;;24.00;45.42
75936;BME280;64614;32.062;34.834;2024-02-21T11:16:50;101476.72;;;23.93;45.59
75936;BME280;64614;32.062;34.834;2024-02-21T11:19:21;101484.34;;;23.96;45.42
75936;BME280;64614;32.062;34.834;2024-02-21T11:21:47;101485.19;;;23.97;45.39
75936;BME280;64614;32.062;34.834;2024-02-21T11:24:13;101481.38;;;23.92;45.50
75936;BME280;64614;32.062;34.834;2024-02-21T11:26:40;101470.97;;;23.89;45.17
75936;BME280;64614;32.062;34.834;2024-02-21T11:29:09;101487.94;;;23.97;45.34
75936;BME280;64614;32.062;34.834;2024-02-21T11:31:43;101473.38;;;23.96;45.17
75936;BME280;64614;32.062;34.834;2024-02-21T11:34:11;101469.88;;;23.90;45.30
75936;BME280;64614;32.062;34.834;2024-02-21T11:36:51;101474.78;;;23.93;45.43
75936;BME280;64614;32.062;34.834;2024-02-21T11:39:25;101472.94;;;23.89;44.92
75936;BME280;64614;32.062;34.834;2024-02-21T11:44:26;101472.94;;;23.89;44.84
75936;BME280;64614;32.062;34.834;2024-02-21T11:46:52;101474.56;;;23.90;45.05
75936;BME280;64614;32.062;34.834;2024-02-21T11:49:17;101490.19;;;23.89;45.12
75936;BME280;64614;32.062;34.834;2024-02-21T11:51:43;101489.38;;;23.89;44.85
75936;BME280;64614;32.062;34.834;2024-02-21T11:54:11;101475.16;;;23.87;44.93
75936;BME280;64614;32.062;34.834;2024-02-21T11:56:38;101476.78;;;23.88;44.81
75936;BME280;64614;32.062;34.834;2024-02-21T11:59:04;101462.53;;;23.86;44.85
75936;BME280;64614;32.062;34.834;2024-02-21T12:01:31;101460.91;;;23.85;44.60
75936;BME280;64614;32.062;34.834;2024-02-21T12:03:58;101474.63;;;23.85;44.61
75936;BME280;64614;32.062;34.834;2024-02-21T12:06:24;101478.00;;;23.82;44.71
75936;BME280;64614;32.062;34.834;2024-02-21T12:08:50;101469.47;;;23.83;44.62
75936;BME280;64614;32.062;34.834;2024-02-21T12:11:24;101472.19;;;23.83;44.65
75936;BME280;64614;32.062;34.834;2024-02-21T12:14:03;101466.41;;;23.85;44.79
75936;BME280;64614;32.062;34.834;2024-02-21T12:16:31;101474.13;;;23.83;44.50
75936;BME280;64614;32.062;34.834;2024-02-21T12:18:58;101463.44;;;23.81;44.72
75936;BME280;64614;32.062;34.834;2024-02-21T12:21:27;101456.63;;;23.78;44.46
75936;BME280;64614;32.062;34.834;2024-02-21T12:23:55;101473.63;;;23.81;44.52
75936;BME280;64614;32.062;34.834;2024-02-21T12:26:24;101460.81;;;23.76;44.71
75936;BME280;64614;32.062;34.834;2024-02-21T12:28:50;101457.84;;;23.72;44.52
75936;BME280;64614;32.062;34.834;2024-02-21T12:31:17;101468.44;;;23.79;44.56
75936;BME280;64614;32.062;34.834;2024-02-21T12:33:43;101460.50;;;23.77;44.57
75936;BME280;64614;32.062;34.834;2024-02-21T12:36:09;101448.50;;;23.73;44.30
75936;BME280;64614;32.062;34.834;2024-02-21T12:38:35;101458.84;;;23.76;44.50
75936;BME280;64614;32.062;34.834;2024-02-21T12:41:01;101450.16;;;23.74;44.36
75936;BME280;64614;32.062;34.834;2024-02-21T12:43:27;101449.94;;;23.71;44.43
75936;BME280;64614;32.062;34.834;2024-02-21T12:45:53;101461.91;;;23.75;44.31
75936;BME280;64614;32.062;34.834;2024-02-21T12:48:18;101452.88;;;23.74;44.28
75936;BME280;64614;32.062;34.834;2024-02-21T12:50:53;101459.47;;;23.73;44.38
75936;BME280;64614;32.062;34.834;2024-02-21T12:53:21;101442.38;;;23.62;43.86
75936;BME280;64614;32.062;34.834;2024-02-21T12:55:48;101457.03;;;23.72;44.18
75936;BME280;64614;32.062;34.834;2024-02-21T12:58:14;101464.97;;;23.73;44.25
75936;BME280;64614;32.062;34.834;2024-02-21T13:00:40;101461.13;;;23.74;44.06
75936;BME280;64614;32.062;34.834;2024-02-21T13:03:06;101458.66;;;23.73;44.00
75936;BME280;64614;32.062;34.834;2024-02-21T13:05:32;101464.75;;;23.70;44.08
75936;BME280;64614;32.062;34.834;2024-02-21T13:08:00;101450.31;;;23.64;44.22
75936;BME280;64614;32.062;34.834;2024-02-21T13:10:26;101453.56;;;23.66;44.01